sensor_id;sensor_type;location;lat;lon;timestamp;temperature;humidity
59162;DHT22;44942;48.936;8.260;2023-03-01T00:02:21;19.70;43.10
59162;DHT22;44942;48.936;8.260;2023-03-01T00:07:21;19.70;43.10
59162;DHT22;44942;48.936;8.260;2023-03-01T00:12:22;19.70;43.10
59162;DHT22;44942;48.936;8.260;2023-03-01T00:17:22;19.70;43.20
59162;DHT22;44942;48.936;8.260;2023-03-01T00:22:23;19.70;43.20
59162;DHT22;44942;48.936;8.260;2023-03-01T00:27:23;19.70;43.20
59162;DHT22;44942;48.936;8.260;2023-03-01T00:32:24;19.70;43.20
59162;DHT22;44942;48.936;8.260;2023-03-01T00:37:24;19.60;43.20
59162;DHT22;44942;48.936;8.260;2023-03-01T00:42:25;19.60;43.20
59162;DHT22;44942;48.936;8.260;2023-03-01T00:47:28;19.60;43.30
59162;DHT22;44942;48.936;8.260;2023-03-01T00:52:29;19.60;43.30
59162;DHT22;44942;48.936;8.260;2023-03-01T00:57:30;19.70;43.30
59162;DHT22;44942;48.936;8.260;2023-03-01T01:02:32;19.60;43.30
59162;DHT22;44942;48.936;8.260;2023-03-01T01:07:33;19.70;43.40
59162;DHT22;44942;48.936;8.260;2023-03-01T01:12:34;19.60;43.30
59162;DHT22;44942;48.936;8.260;2023-03-01T01:17:34;19.60;43.30
59162;DHT22;44942;48.936;8.260;2023-03-01T01:22:35;19.60;43.40
59162;DHT22;44942;48.936;8.260;2023-03-01T01:27:36;19.60;43.30
59162;DHT22;44942;48.936;8.260;2023-03-01T01:32:36;19.60;43.40
59162;DHT22;44942;48.936;8.260;2023-03-01T01:37:37;19.60;43.40
59162;DHT22;44942;48.936;8.260;2023-03-01T01:42:38;19.60;43.40
59162;DHT22;44942;48.936;8.260;2023-03-01T01:47:38;19.60;43.50
59162;DHT22;44942;48.936;8.260;2023-03-01T01:52:39;19.60;43.50
59162;DHT22;44942;48.936;8.260;2023-03-01T01:58:00;19.60;43.50
59162;DHT22;44942;48.936;8.260;2023-03-01T02:03:05;19.60;43.50
59162;DHT22;44942;48.936;8.260;2023-03-01T02:08:08;19.60;43.70
59162;DHT22;44942;48.936;8.260;2023-03-01T02:13:10;19.60;43.60
59162;DHT22;44942;48.936;8.260;2023-03-01T02:18:12;19.60;43.70
59162;DHT22;44942;48.936;8.260;2023-03-01T02:23:13;19.60;43.80
59162;DHT22;44942;48.936;8.260;2023-03-01T02:33:15;19.50;43.80
59162;DHT22;44942;48.936;8.260;2023-03-01T02:38:16;19.60;43.90
59162;DHT22;44942;48.936;8.260;2023-03-01T02:43:19;19.50;43.80
59162;DHT22;44942;48.936;8.260;2023-03-01T02:48:21;19.50;43.80
59162;DHT22;44942;48.936;8.260;2023-03-01T02:53:23;19.50;43.90
59162;DHT22;44942;48.936;8.260;2023-03-01T02:58:27;19.50;43.90
59162;DHT22;44942;48.936;8.260;2023-03-01T03:03:28;19.50;43.90
59162;DHT22;44942;48.936;8.260;2023-03-01T03:08:29;19.50;43.90
59162;DHT22;44942;48.936;8.260;2023-03-01T03:13:29;19.50;44.00
59162;DHT22;44942;48.936;8.260;2023-03-01T03:18:30;19.50;44.00
59162;DHT22;44942;48.936;8.260;2023-03-01T03:23:30;19.50;44.00
59162;DHT22;44942;48.936;8.260;2023-03-01T03:28:33;19.50;44.00
59162;DHT22;44942;48.936;8.260;2023-03-01T03:33:33;19.50;44.00
59162;DHT22;44942;48.936;8.260;2023-03-01T03:38:34;19.50;44.00
59162;DHT22;44942;48.936;8.260;2023-03-01T03:43:36;19.50;43.90
59162;DHT22;44942;48.936;8.260;2023-03-01T03:48:42;19.50;44.00
59162;DHT22;44942;48.936;8.260;2023-03-01T03:53:45;19.50;44.00
59162;DHT22;44942;48.936;8.260;2023-03-01T03:58:45;19.50;44.10
59162;DHT22;44942;48.936;8.260;2023-03-01T04:03:46;19.50;44.10
59162;DHT22;44942;48.936;8.260;2023-03-01T04:08:46;19.50;44.10
59162;DHT22;44942;48.936;8.260;2023-03-01T04:13:53;19.50;44.20
59162;DHT22;44942;48.936;8.260;2023-03-01T04:18:53;19.40;44.20
59162;DHT22;44942;48.936;8.260;2023-03-01T04:23:54;19.50;44.20
59162;DHT22;44942;48.936;8.260;2023-03-01T04:28:55;19.40;44.90
59162;DHT22;44942;48.936;8.260;2023-03-01T04:33:55;19.40;44.20
59162;DHT22;44942;48.936;8.260;2023-03-01T04:38:56;19.40;44.20
59162;DHT22;44942;48.936;8.260;2023-03-01T04:43:57;19.40;44.20
59162;DHT22;44942;48.936;8.260;2023-03-01T04:49:00;19.40;44.20
59162;DHT22;44942;48.936;8.260;2023-03-01T04:54:01;19.40;44.20
59162;DHT22;44942;48.936;8.260;2023-03-01T04:59:01;19.40;44.20
59162;DHT22;44942;48.936;8.260;2023-03-01T05:04:05;19.40;44.30
59162;DHT22;44942;48.936;8.260;2023-03-01T05:09:07;19.40;44.20
59162;DHT22;44942;48.936;8.260;2023-03-01T05:14:08;19.40;44.30
59162;DHT22;44942;48.936;8.260;2023-03-01T05:19:09;19.40;44.20
59162;DHT22;44942;48.936;8.260;2023-03-01T05:24:15;19.40;44.20
59162;DHT22;44942;48.936;8.260;2023-03-01T05:29:16;19.30;44.20
59162;DHT22;44942;48.936;8.260;2023-03-01T05:34:17;19.30;44.20
59162;DHT22;44942;48.936;8.260;2023-03-01T05:39:17;19.30;44.20
59162;DHT22;44942;48.936;8.260;2023-03-01T05:44:18;19.30;44.20
59162;DHT22;44942;48.936;8.260;2023-03-01T05:49:18;19.30;44.60
59162;DHT22;44942;48.936;8.260;2023-03-01T05:54:20;19.30;44.20
59162;DHT22;44942;48.936;8.260;2023-03-01T05:59:22;19.30;44.20
59162;DHT22;44942;48.936;8.260;2023-03-01T06:04:22;19.30;44.20
59162;DHT22;44942;48.936;8.260;2023-03-01T06:09:23;19.30;44.20
59162;DHT22;44942;48.936;8.260;2023-03-01T06:14:23;19.30;44.10
59162;DHT22;44942;48.936;8.260;2023-03-01T06:19:24;19.30;44.20
59162;DHT22;44942;48.936;8.260;2023-03-01T06:24:24;19.30;44.20
59162;DHT22;44942;48.936;8.260;2023-03-01T06:29:25;19.30;44.30
59162;DHT22;44942;48.936;8.260;2023-03-01T06:34:26;19.20;44.20
59162;DHT22;44942;48.936;8.260;2023-03-01T06:39:27;19.20;44.30
59162;DHT22;44942;48.936;8.260;2023-03-01T06:44:28;19.20;44.30
59162;DHT22;44942;48.936;8.260;2023-03-01T06:49:29;19.20;44.30
59162;DHT22;44942;48.936;8.260;2023-03-01T06:54:30;17.00;39.10
59162;DHT22;44942;48.936;8.260;2023-03-01T06:59:30;15.20;38.40
59162;DHT22;44942;48.936;8.260;2023-03-01T07:04:31;14.60;38.20
59162;DHT22;44942;48.936;8.260;2023-03-01T07:09:32;13.50;37.80
59162;DHT22;44942;48.936;8.260;2023-03-01T07:14:33;14.30;38.90
59162;DHT22;44942;48.936;8.260;2023-03-01T07:19:34;15.30;39.80
59162;DHT22;44942;48.936;8.260;2023-03-01T07:24:34;15.90;39.00
59162;DHT22;44942;48.936;8.260;2023-03-01T07:29:35;16.20;39.00
59162;DHT22;44942;48.936;8.260;2023-03-01T07:34:36;16.50;39.20
59162;DHT22;44942;48.936;8.260;2023-03-01T07:39:37;16.70;39.30
59162;DHT22;44942;48.936;8.260;2023-03-01T07:44:37;16.80;39.30
59162;DHT22;44942;48.936;8.260;2023-03-01T07:49:38;16.90;39.60
59162;DHT22;44942;48.936;8.260;2023-03-01T07:54:41;17.00;39.90
59162;DHT22;44942;48.936;8.260;2023-03-01T07:59:43;17.10;40.00
59162;DHT22;44942;48.936;8.260;2023-03-01T08:04:43;17.30;40.10
59162;DHT22;44942;48.936;8.260;2023-03-01T08:09:44;17.30;40.10
59162;DHT22;44942;48.936;8.260;2023-03-01T08:14:45;17.40;40.20
59162;DHT22;44942;48.936;8.260;2023-03-01T08:19:45;17.40;40.30
59162;DHT22;44942;48.936;8.260;2023-03-01T08:24:46;17.50;40.40
59162;DHT22;44942;48.936;8.260;2023-03-01T08:29:47;17.60;40.50
59162;DHT22;44942;48.936;8.260;2023-03-01T08:34:47;17.60;40.50
59162;DHT22;44942;48.936;8.260;2023-03-01T08:39:48;17.70;40.60
59162;DHT22;44942;48.936;8.260;2023-03-01T08:44:48;17.70;40.60
59162;DHT22;44942;48.936;8.260;2023-03-01T08:49:50;17.70;40.80
59162;DHT22;44942;48.936;8.260;2023-03-01T08:54:50;17.80;40.90
59162;DHT22;44942;48.936;8.260;2023-03-01T08:59:51;17.80;40.90
59162;DHT22;44942;48.936;8.260;2023-03-01T09:04:52;17.90;41.60
59162;DHT22;44942;48.936;8.260;2023-03-01T09:09:52;17.90;41.00
59162;DHT22;44942;48.936;8.260;2023-03-01T09:14:53;18.00;41.00
59162;DHT22;44942;48.936;8.260;2023-03-01T09:19:54;18.00;41.20
59162;DHT22;44942;48.936;8.260;2023-03-01T09:24:54;18.00;41.10
59162;DHT22;44942;48.936;8.260;2023-03-01T09:29:56;18.10;41.20
59162;DHT22;44942;48.936;8.260;2023-03-01T09:34:57;18.10;41.20
59162;DHT22;44942;48.936;8.260;2023-03-01T09:40:12;18.10;41.20
59162;DHT22;44942;48.936;8.260;2023-03-01T09:45:33;18.10;41.30
59162;DHT22;44942;48.936;8.260;2023-03-01T09:50:39;18.20;41.40
59162;DHT22;44942;48.936;8.260;2023-03-01T09:55:50;18.20;41.50
59162;DHT22;44942;48.936;8.260;2023-03-01T10:00:52;18.20;41.60
59162;DHT22;44942;48.936;8.260;2023-03-01T10:06:14;18.30;41.60
59162;DHT22;44942;48.936;8.260;2023-03-01T10:11:28;18.30;41.70
59162;DHT22;44942;48.936;8.260;2023-03-01T10:16:43;18.40;41.80
59162;DHT22;44942;48.936;8.260;2023-03-01T10:21:45;18.40;41.80
59162;DHT22;44942;48.936;8.260;2023-03-01T10:26:57;18.50;41.90
59162;DHT22;44942;48.936;8.260;2023-03-01T10:31:59;18.60;42.00
59162;DHT22;44942;48.936;8.260;2023-03-01T10:37:10;18.60;42.00
59162;DHT22;44942;48.936;8.260;2023-03-01T10:47:41;18.70;42.00
59162;DHT22;44942;48.936;8.260;2023-03-01T10:52:56;18.70;42.00
59162;DHT22;44942;48.936;8.260;2023-03-01T11:03:21;18.80;42.20
59162;DHT22;44942;48.936;8.260;2023-03-01T11:08:33;18.80;42.10
59162;DHT22;44942;48.936;8.260;2023-03-01T11:13:35;18.90;42.90
59162;DHT22;44942;48.936;8.260;2023-03-01T11:18:35;18.90;42.10
59162;DHT22;44942;48.936;8.260;2023-03-01T11:23:37;19.00;42.20
59162;DHT22;44942;48.936;8.260;2023-03-01T11:28:40;19.00;42.20
59162;DHT22;44942;48.936;8.260;2023-03-01T11:38:53;19.10;42.20
59162;DHT22;44942;48.936;8.260;2023-03-01T11:44:00;19.10;42.20
59162;DHT22;44942;48.936;8.260;2023-03-01T12:00:14;19.10;42.20
59162;DHT22;44942;48.936;8.260;2023-03-01T12:05:50;19.20;42.10
59162;DHT22;44942;48.936;8.260;2023-03-01T12:37:35;19.30;42.10
59162;DHT22;44942;48.936;8.260;2023-03-01T12:48:11;19.40;42.00
59162;DHT22;44942;48.936;8.260;2023-03-01T12:53:26;19.40;42.00
59162;DHT22;44942;48.936;8.260;2023-03-01T13:19:28;19.40;41.90
59162;DHT22;44942;48.936;8.260;2023-03-01T13:24:41;19.50;41.90
59162;DHT22;44942;48.936;8.260;2023-03-01T13:29:54;19.50;41.90
59162;DHT22;44942;48.936;8.260;2023-03-01T13:34:59;19.50;41.90
59162;DHT22;44942;48.936;8.260;2023-03-01T13:40:04;19.50;41.90
59162;DHT22;44942;48.936;8.260;2023-03-01T13:45:36;19.50;41.80
59162;DHT22;44942;48.936;8.260;2023-03-01T13:50:45;19.50;41.90
59162;DHT22;44942;48.936;8.260;2023-03-01T13:55:55;19.50;41.80
59162;DHT22;44942;48.936;8.260;2023-03-01T14:01:02;19.60;41.80
59162;DHT22;44942;48.936;8.260;2023-03-01T14:22:23;19.60;41.70
59162;DHT22;44942;48.936;8.260;2023-03-01T14:27:34;19.60;41.70
59162;DHT22;44942;48.936;8.260;2023-03-01T14:32:36;19.60;41.70
59162;DHT22;44942;48.936;8.260;2023-03-01T14:37:36;19.60;41.70
59162;DHT22;44942;48.936;8.260;2023-03-01T14:42:37;19.60;41.70
59162;DHT22;44942;48.936;8.260;2023-03-01T14:47:38;19.70;41.70
59162;DHT22;44942;48.936;8.260;2023-03-01T14:52:40;19.70;41.80
59162;DHT22;44942;48.936;8.260;2023-03-01T14:57:47;19.70;41.70
59162;DHT22;44942;48.936;8.260;2023-03-01T15:02:51;19.70;41.70
59162;DHT22;44942;48.936;8.260;2023-03-01T15:07:52;19.70;41.70
59162;DHT22;44942;48.936;8.260;2023-03-01T15:12:53;19.70;41.70
59162;DHT22;44942;48.936;8.260;2023-03-01T15:17:59;19.70;41.70
59162;DHT22;44942;48.936;8.260;2023-03-01T15:23:00;19.80;41.70
59162;DHT22;44942;48.936;8.260;2023-03-01T15:28:02;19.80;41.70
59162;DHT22;44942;48.936;8.260;2023-03-01T15:38:55;19.80;41.80
59162;DHT22;44942;48.936;8.260;2023-03-01T15:43:58;19.80;41.90
59162;DHT22;44942;48.936;8.260;2023-03-01T15:49:03;19.80;42.10
59162;DHT22;44942;48.936;8.260;2023-03-01T15:54:13;19.90;42.20
59162;DHT22;44942;48.936;8.260;2023-03-01T15:59:17;19.90;42.70
59162;DHT22;44942;48.936;8.260;2023-03-01T16:04:18;19.90;42.50
59162;DHT22;44942;48.936;8.260;2023-03-01T16:09:23;19.90;42.40
59162;DHT22;44942;48.936;8.260;2023-03-01T16:14:24;19.90;42.30
59162;DHT22;44942;48.936;8.260;2023-03-01T16:19:25;19.90;42.10
59162;DHT22;44942;48.936;8.260;2023-03-01T16:24:25;19.90;41.90
59162;DHT22;44942;48.936;8.260;2023-03-01T16:29:26;19.90;41.70
59162;DHT22;44942;48.936;8.260;2023-03-01T16:34:27;19.80;41.50
59162;DHT22;44942;48.936;8.260;2023-03-01T16:39:27;19.80;41.50
59162;DHT22;44942;48.936;8.260;2023-03-01T16:44:28;19.90;41.50
59162;DHT22;44942;48.936;8.260;2023-03-01T16:49:28;19.90;41.50
59162;DHT22;44942;48.936;8.260;2023-03-01T16:54:29;19.80;41.50
59162;DHT22;44942;48.936;8.260;2023-03-01T16:59:30;19.90;41.80
59162;DHT22;44942;48.936;8.260;2023-03-01T17:04:30;19.90;41.80
59162;DHT22;44942;48.936;8.260;2023-03-01T17:09:35;19.80;41.60
59162;DHT22;44942;48.936;8.260;2023-03-01T17:14:35;19.80;41.40
59162;DHT22;44942;48.936;8.260;2023-03-01T17:19:38;19.80;41.30
59162;DHT22;44942;48.936;8.260;2023-03-01T17:24:42;19.80;41.30
59162;DHT22;44942;48.936;8.260;2023-03-01T17:29:43;19.90;41.30
59162;DHT22;44942;48.936;8.260;2023-03-01T17:34:43;19.80;41.20
59162;DHT22;44942;48.936;8.260;2023-03-01T17:39:45;19.80;41.20
59162;DHT22;44942;48.936;8.260;2023-03-01T17:44:46;19.80;41.20
59162;DHT22;44942;48.936;8.260;2023-03-01T17:49:49;19.80;41.30
59162;DHT22;44942;48.936;8.260;2023-03-01T17:54:49;19.80;41.30
59162;DHT22;44942;48.936;8.260;2023-03-01T17:59:50;19.80;41.30
59162;DHT22;44942;48.936;8.260;2023-03-01T18:04:51;19.80;41.30
59162;DHT22;44942;48.936;8.260;2023-03-01T18:09:52;19.80;41.30
59162;DHT22;44942;48.936;8.260;2023-03-01T18:14:53;19.80;41.40
59162;DHT22;44942;48.936;8.260;2023-03-01T18:19:54;19.80;41.50
59162;DHT22;44942;48.936;8.260;2023-03-01T18:24:55;19.80;41.60
59162;DHT22;44942;48.936;8.260;2023-03-01T18:29:56;19.80;41.60
59162;DHT22;44942;48.936;8.260;2023-03-01T18:34:57;19.80;41.80
59162;DHT22;44942;48.936;8.260;2023-03-01T18:39:57;19.80;41.90
59162;DHT22;44942;48.936;8.260;2023-03-01T18:44:58;19.90;42.00
59162;DHT22;44942;48.936;8.260;2023-03-01T18:49:58;19.80;42.00
59162;DHT22;44942;48.936;8.260;2023-03-01T18:54:59;19.90;42.10
59162;DHT22;44942;48.936;8.260;2023-03-01T19:00:00;19.80;42.10
59162;DHT22;44942;48.936;8.260;2023-03-01T19:05:00;19.80;42.10
59162;DHT22;44942;48.936;8.260;2023-03-01T19:10:01;19.80;42.10
59162;DHT22;44942;48.936;8.260;2023-03-01T19:15:03;19.80;42.20
59162;DHT22;44942;48.936;8.260;2023-03-01T19:20:05;19.80;42.20
59162;DHT22;44942;48.936;8.260;2023-03-01T19:25:06;19.90;42.30
59162;DHT22;44942;48.936;8.260;2023-03-01T19:30:07;19.90;43.20
59162;DHT22;44942;48.936;8.260;2023-03-01T19:35:08;19.90;43.40
59162;DHT22;44942;48.936;8.260;2023-03-01T19:40:09;19.90;42.90
59162;DHT22;44942;48.936;8.260;2023-03-01T19:45:10;19.90;42.80
59162;DHT22;44942;48.936;8.260;2023-03-01T19:50:16;19.90;43.00
59162;DHT22;44942;48.936;8.260;2023-03-01T19:55:17;19.90;43.00
59162;DHT22;44942;48.936;8.260;2023-03-01T20:00:18;19.90;43.10
59162;DHT22;44942;48.936;8.260;2023-03-01T20:05:18;19.90;43.20
59162;DHT22;44942;48.936;8.260;2023-03-01T20:10:19;19.90;43.20
59162;DHT22;44942;48.936;8.260;2023-03-01T20:15:20;20.00;43.20
59162;DHT22;44942;48.936;8.260;2023-03-01T20:20:20;20.00;43.20
59162;DHT22;44942;48.936;8.260;2023-03-01T20:25:21;20.00;43.30
59162;DHT22;44942;48.936;8.260;2023-03-01T20:30:21;20.00;43.20
59162;DHT22;44942;48.936;8.260;2023-03-01T20:35:22;20.00;43.30
59162;DHT22;44942;48.936;8.260;2023-03-01T20:40:24;20.00;43.30
59162;DHT22;44942;48.936;8.260;2023-03-01T20:45:27;20.00;43.40
59162;DHT22;44942;48.936;8.260;2023-03-01T20:50:28;20.00;43.40
59162;DHT22;44942;48.936;8.260;2023-03-01T20:55:28;20.00;43.40
59162;DHT22;44942;48.936;8.260;2023-03-01T21:00:29;20.00;43.40
59162;DHT22;44942;48.936;8.260;2023-03-01T21:05:30;20.00;43.50
59162;DHT22;44942;48.936;8.260;2023-03-01T21:10:31;20.00;43.40
59162;DHT22;44942;48.936;8.260;2023-03-01T21:15:32;20.00;43.50
59162;DHT22;44942;48.936;8.260;2023-03-01T21:20:32;20.00;43.50
59162;DHT22;44942;48.936;8.260;2023-03-01T21:25:33;20.00;43.40
59162;DHT22;44942;48.936;8.260;2023-03-01T21:30:34;20.00;43.40
59162;DHT22;44942;48.936;8.260;2023-03-01T21:35:34;20.00;43.40
59162;DHT22;44942;48.936;8.260;2023-03-01T21:40:36;20.00;43.50
59162;DHT22;44942;48.936;8.260;2023-03-01T21:45:36;20.00;43.50
59162;DHT22;44942;48.936;8.260;2023-03-01T21:50:37;20.00;43.50
59162;DHT22;44942;48.936;8.260;2023-03-01T21:55:37;20.00;43.50
59162;DHT22;44942;48.936;8.260;2023-03-01T22:00:46;20.00;43.50
59162;DHT22;44942;48.936;8.260;2023-03-01T22:05:57;20.00;43.60
59162;DHT22;44942;48.936;8.260;2023-03-01T22:11:01;20.00;43.50
59162;DHT22;44942;48.936;8.260;2023-03-01T22:16:02;20.00;43.40
59162;DHT22;44942;48.936;8.260;2023-03-01T22:21:04;20.00;43.50
59162;DHT22;44942;48.936;8.260;2023-03-01T22:26:07;20.00;43.40
59162;DHT22;44942;48.936;8.260;2023-03-01T22:31:07;20.00;43.40
59162;DHT22;44942;48.936;8.260;2023-03-01T22:36:08;20.00;43.40
59162;DHT22;44942;48.936;8.260;2023-03-01T22:41:09;20.00;43.40
59162;DHT22;44942;48.936;8.260;2023-03-01T22:46:15;20.00;43.40
59162;DHT22;44942;48.936;8.260;2023-03-01T22:56:25;20.00;43.40
59162;DHT22;44942;48.936;8.260;2023-03-01T23:01:28;19.90;43.40
59162;DHT22;44942;48.936;8.260;2023-03-01T23:06:29;19.90;43.40
59162;DHT22;44942;48.936;8.260;2023-03-01T23:11:31;20.00;43.50
59162;DHT22;44942;48.936;8.260;2023-03-01T23:16:31;19.90;43.40
59162;DHT22;44942;48.936;8.260;2023-03-01T23:21:32;19.90;43.40
59162;DHT22;44942;48.936;8.260;2023-03-01T23:26:33;19.90;43.40
59162;DHT22;44942;48.936;8.260;2023-03-01T23:31:34;19.90;43.50
59162;DHT22;44942;48.936;8.260;2023-03-01T23:36:35;19.90;43.50
59162;DHT22;44942;48.936;8.260;2023-03-01T23:41:35;19.90;43.50
59162;DHT22;44942;48.936;8.260;2023-03-01T23:46:36;20.00;43.50
59162;DHT22;44942;48.936;8.260;2023-03-01T23:51:42;19.90;43.50
59162;DHT22;44942;48.936;8.260;2023-03-01T23:56:44;19.90;43.50
